Sea Hymn — D5MT5 — position and weather

sailwx.info

Track history (hours):
 
Tides and Currents Weather Stations Pressure Air Temp Water Temp Dewpoint Dewpoint Depression Visibility Wind Speed Wind Dir Waves Ship Positions

Sea Hymn

Last reported at 2017-Sep-21 06:46 UTC. Time now 2017-Oct-18 20:09 UTC.
Position N 37°04' W 123°11'.
Warning: this ship's position is 27 days out of date.

Length 250 m; draft 9.1 m.

Type: Tanker. MMSI: 636017795.

Date/timePositionNaut miles runAvg speedWind from/ knotsBaromVisibWave heightAir tempDewpointWater temp
2017-Sep-21 06:46N 37°04' W 123°11'613.7
2017-Sep-21 06:19N 37°10' W 123°11'413.2
2017-Sep-21 06:00N 37°14' W 123°12'713.1
2017-Sep-21 05:30N 37°20' W 123°10'713.2
2017-Sep-21 05:00N 37°27' W 123°09'612.9
2017-Sep-21 04:30N 37°33' W 123°06'510.7
2017-Sep-21 04:00N 37°36' W 123°00'510.2
2017-Sep-21 03:30N 37°39' W 122°55'510.3
2017-Sep-21 03:00N 37°42' W 122°50'5 9.7
2017-Sep-21 02:30N 37°44' W 122°44'5 9.1
2017-Sep-21 02:00N 37°46' W 122°39'713.6
2017-Sep-21 01:31N 37°48' W 122°31'611.6
2017-Sep-21 01:00N 37°49' W 122°24'3 7.0
2017-Sep-21 00:30N 37°46' W 122°21'0 0.1
2017-Sep-21 00:00N 37°46' W 122°21'0 0.0
2017-Sep-20 23:30N 37°46' W 122°21'0 0.0
2017-Sep-20 23:00N 37°46' W 122°21'0 0.1
2017-Sep-20 22:30N 37°46' W 122°21'0 0.0
2017-Sep-20 22:01N 37°46' W 122°21'0 0.2
2017-Sep-20 21:30N 37°46' W 122°21'0 0.4
2017-Sep-20 21:00N 37°46' W 122°21'0 0.1
2017-Sep-20 20:31N 37°46' W 122°21'0 0.1
2017-Sep-20 20:01N 37°46' W 122°21'0 0.0
2017-Sep-20 19:30N 37°46' W 122°21'0 0.1
2017-Sep-20 19:00N 37°46' W 122°21'2 3.2
2017-Sep-20 18:30N 37°47' W 122°23'510.9
2017-Sep-20 18:00N 37°52' W 122°25'611.5
2017-Sep-20 17:30N 37°58' W 122°27'612.1
2017-Sep-20 17:00N 38°02' W 122°21'713.3
2017-Sep-20 16:30N 38°04' W 122°13'5 9.1
2017-Sep-20 16:00N 38°02' W 122°07'0 0.0
2017-Sep-19 08:51N 38°02' W 122°07'0 0.3
2017-Sep-19 08:30N 38°02' W 122°07'2 2.8
2017-Sep-19 07:58N 38°02' W 122°09'4 8.2
2017-Sep-19 07:30N 38°04' W 122°13'4 8.8
2017-Sep-19 07:00N 38°03' W 122°19'5 9.1
2017-Sep-19 06:30N 38°01' W 122°24'611.1
2017-Sep-19 06:00N 37°56' W 122°27'510.3
2017-Sep-19 05:30N 37°51' W 122°25'510.5
2017-Sep-19 05:00N 37°48' W 122°30'714.3
2017-Sep-19 04:30N 37°46' W 122°39'4 8.6
2017-Sep-19 04:00N 37°43' W 122°43'2 3.9
2017-Sep-19 03:30N 37°41' W 122°45'4 7.3
2017-Sep-19 03:00N 37°39' W 122°48'510.0
2017-Sep-19 02:30N 37°37' W 122°54'510.1
2017-Sep-19 02:00N 37°34' W 122°59'5 9.9
2017-Sep-19 01:30N 37°31' W 123°04'611.5
2017-Sep-19 01:00N 37°27' W 123°09'612.4
2017-Sep-19 00:30N 37°22' W 123°13'712.1
2017-Sep-18 23:54N 37°16' W 123°19'5 0.5
2017-Sep-18 13:24N 37°21' W 123°19'8 7.2
2017-Sep-18 12:20N 37°16' W 123°12'513.3
2017-Sep-18 11:58N 37°11' W 123°11'713.5
2017-Sep-18 11:27N 37°04' W 123°11'813.6
2017-Sep-18 10:52N 36°56' W 123°10'513.5
2017-Sep-18 10:30N 36°51' W 123°10'1013.7
2017-Sep-18 09:48N 36°42' W 123°09'513.3
2017-Sep-18 09:28N 36°37' W 123°09'813.4
2017-Sep-18 08:52N 36°29' W 123°09'513.4
2017-Sep-18 08:29N 36°24' W 123°08'613.3
2017-Sep-18 08:00N 36°18' W 123°08'1313.3
2017-Sep-18 07:03N 36°05' W 123°07'113.2
2017-Sep-18 07:00N 36°04' W 123°06'713.2
2017-Sep-18 06:30N 35°58' W 123°06'812.9
2017-Sep-18 05:54N 35°50' W 123°06'512.7
2017-Sep-18 05:30N 35°45' W 123°05'612.7
2017-Sep-18 05:00N 35°39' W 123°05'712.6
2017-Sep-18 04:29N 35°32' W 123°04'812.4
2017-Sep-18 03:51N 35°25' W 123°01'512.9
2017-Sep-18 03:30N 35°21' W 122°58'2212.4
2017-Sep-18 01:46N 35°03' W 122°44'312.6
2017-Sep-18 01:30N 34°60' W 122°42'1512.5
2017-Sep-18 00:20N 34°47' W 122°32'412.4
2017-Sep-17 23:59N 34°44' W 122°29'712.5
2017-Sep-17 23:28N 34°38' W 122°25'611.7
2017-Sep-17 22:58N 34°35' W 122°20'612.7
2017-Sep-17 22:28N 34°34' W 122°12'1012.8
2017-Sep-17 21:43N 34°33' W 122°00'312.8
2017-Sep-17 21:30N 34°33' W 121°57'713.0
2017-Sep-17 21:00N 34°32' W 121°49'713.2
2017-Sep-17 20:30N 34°31' W 121°41'713.1
2017-Sep-17 20:00N 34°30' W 121°33'713.1
2017-Sep-17 19:30N 34°29' W 121°25'713.3
2017-Sep-17 19:00N 34°29' W 121°17'713.1
2017-Sep-17 18:30N 34°28' W 121°09'713.3
2017-Sep-17 18:00N 34°27' W 121°01'713.4
2017-Sep-17 17:30N 34°26' W 120°53'713.6
2017-Sep-17 17:00N 34°25' W 120°45'713.7
2017-Sep-17 16:30N 34°23' W 120°37'714.1
2017-Sep-17 16:00N 34°21' W 120°29'714.1
2017-Sep-17 15:30N 34°19' W 120°21'714.3
2017-Sep-17 15:00N 34°17' W 120°12'713.8
2017-Sep-17 14:30N 34°15' W 120°04'713.5
2017-Sep-17 14:00N 34°14' W 119°56'713.6
2017-Sep-17 13:29N 34°12' W 119°48'713.5
2017-Sep-17 13:00N 34°10' W 119°41'713.8
2017-Sep-17 12:30N 34°08' W 119°33'713.6
2017-Sep-17 12:00N 34°06' W 119°25'713.6
2017-Sep-17 11:30N 34°04' W 119°17'613.2
2017-Sep-17 11:00N 34°02' W 119°10'713.6
2017-Sep-17 10:30N 33°58' W 119°03'612.3
2017-Sep-17 10:00N 33°55' W 118°56'612.0
2017-Sep-17 09:30N 33°52' W 118°50'612.1
2017-Sep-17 09:00N 33°49' W 118°44'611.9
2017-Sep-17 08:30N 33°46' W 118°37'611.8
2017-Sep-17 08:00N 33°43' W 118°31'611.9
2017-Sep-17 07:30N 33°40' W 118°25'611.6
2017-Sep-17 07:00N 33°38' W 118°19'510.8
2017-Sep-17 06:31N 33°39' W 118°12'4 8.8
2017-Sep-17 06:01N 33°43' W 118°11'3 4.9
2017-Sep-17 05:30N 33°45' W 118°13'1 1.9
2017-Sep-17 05:00N 33°46' W 118°13'0 0.0
2017-Sep-17 04:30N 33°46' W 118°13'0 0.0
2017-Sep-17 03:55N 33°46' W 118°13'0 0.0
2017-Sep-17 02:19N 33°46' W 118°13'0 0.0
2017-Sep-17 01:01N 33°46' W 118°13'0 0.0
2017-Sep-17 00:43N 33°46' W 118°13'0 0.0
2017-Sep-17 00:25N 33°46' W 118°13'0 0.0
2017-Sep-16 23:49N 33°46' W 118°13'0 0.0
2017-Sep-16 23:25N 33°46' W 118°13'0 0.0
2017-Sep-16 22:37N 33°46' W 118°13'0 0.0
2017-Sep-16 22:19N 33°46' W 118°13'0 0.0
2017-Sep-16 21:55N 33°46' W 118°13'0 0.0
2017-Sep-16 21:25N 33°46' W 118°13'0 0.0
2017-Sep-16 20:55N 33°46' W 118°13'0 0.0
2017-Sep-16 20:19N 33°46' W 118°13'0 0.0
2017-Sep-16 19:55N 33°46' W 118°13'0 0.0
2017-Sep-16 19:19N 33°46' W 118°13'0 0.0
2017-Sep-16 18:55N 33°46' W 118°13'0 0.0
2017-Sep-16 06:43N 33°46' W 118°13'0 0.0
2017-Sep-16 05:31N 33°46' W 118°13'0 0.0
2017-Sep-16 05:25N 33°46' W 118°13'0 0.0
2017-Sep-16 05:00N 33°46' W 118°13'0 0.8
2017-Sep-16 04:29N 33°46' W 118°13'1 2.9
2017-Sep-16 04:00N 33°45' W 118°13'3 5.5
2017-Sep-16 03:30N 33°42' W 118°11'1 2.9
2017-Sep-16 03:00N 33°41' W 118°10'1 2.5
2017-Sep-16 02:30N 33°41' W 118°08'1 2.0
2017-Sep-16 01:49N 33°41' W 118°07'0 0.0
2017-Sep-16 00:34N 33°41' W 118°07'0 0.0
2017-Sep-16 00:28N 33°41' W 118°07'0 0.0
2017-Sep-15 23:58N 33°41' W 118°07'0 0.1
2017-Sep-15 23:25N 33°41' W 118°07'0 0.0
2017-Sep-15 22:43N 33°41' W 118°07'0 0.0
2017-Sep-15 22:28N 33°41' W 118°07'0 0.0
2017-Sep-15 21:58N 33°41' W 118°07'0 0.0
2017-Sep-15 21:25N 33°41' W 118°07'0 0.0
2017-Sep-15 20:52N 33°41' W 118°07'0 0.0
2017-Sep-15 20:28N 33°41' W 118°07'0 0.0
2017-Sep-15 19:55N 33°41' W 118°07'0 0.0
2017-Sep-15 19:28N 33°41' W 118°07'0 0.0
2017-Sep-15 18:58N 33°41' W 118°07'0 0.0
2017-Sep-15 18:28N 33°41' W 118°07'0 0.0
2017-Sep-15 17:58N 33°41' W 118°07'0 0.1
2017-Sep-15 17:28N 33°41' W 118°07'0 0.1
2017-Sep-15 16:52N 33°41' W 118°07'0 0.1
2017-Sep-15 15:43N 33°41' W 118°07'0 0.1
2017-Sep-15 15:19N 33°41' W 118°07'0 0.0
2017-Sep-15 14:58N 33°41' W 118°07'0 0.1
2017-Sep-15 14:28N 33°41' W 118°07'0 0.1
2017-Sep-15 13:58N 33°41' W 118°07'0 0.2
2017-Sep-15 13:28N 33°41' W 118°07'0 0.1
2017-Sep-15 12:58N 33°41' W 118°07'0 0.1
2017-Sep-15 12:28N 33°41' W 118°07'0 0.0
2017-Sep-15 10:37N 33°41' W 118°07'0 0.0
2017-Sep-15 09:28N 33°41' W 118°07'0 0.1
2017-Sep-15 08:58N 33°41' W 118°07'0 0.0
2017-Sep-15 08:28N 33°41' W 118°07'0 0.0
2017-Sep-15 07:58N 33°41' W 118°07'0 0.0
2017-Sep-15 07:28N 33°41' W 118°07'0 0.0
2017-Sep-15 06:58N 33°41' W 118°07'0 0.0
2017-Sep-15 06:28N 33°41' W 118°07'0 0.0
2017-Sep-15 05:58N 33°41' W 118°07'0 0.0
2017-Sep-15 05:25N 33°41' W 118°07'0 0.0
2017-Sep-15 04:58N 33°41' W 118°07'0 0.0
2017-Sep-15 04:28N 33°41' W 118°07'0 0.0
2017-Sep-15 03:58N 33°41' W 118°07'0 0.0
2017-Sep-15 03:28N 33°41' W 118°07'0 0.0
2017-Sep-15 02:58N 33°41' W 118°07'0 0.1
2017-Sep-15 02:28N 33°41' W 118°07'0 0.0
2017-Sep-15 01:58N 33°41' W 118°07'0 0.1
2017-Sep-15 01:28N 33°41' W 118°07'0 0.1
2017-Sep-15 00:58N 33°41' W 118°07'0 0.0
2017-Sep-15 00:25N 33°41' W 118°07'0 0.0
2017-Sep-14 23:58N 33°41' W 118°07'0 0.0
2017-Sep-14 23:28N 33°41' W 118°07'0 0.0
2017-Sep-14 22:49N 33°41' W 118°07'0 0.0
2017-Sep-14 22:22N 33°41' W 118°07'0 0.0
2017-Sep-14 21:58N 33°41' W 118°07'0 0.1
2017-Sep-14 21:28N 33°41' W 118°07'0 0.0
2017-Sep-14 20:58N 33°41' W 118°07'0 0.0
2017-Sep-14 20:28N 33°41' W 118°07'0 0.1
2017-Sep-14 19:58N 33°41' W 118°07'0 0.1
2017-Sep-14 19:28N 33°41' W 118°07'0 0.0
2017-Sep-14 18:58N 33°41' W 118°07'0 0.0
2017-Sep-14 18:28N 33°41' W 118°07'0 0.0
2017-Sep-14 17:58N 33°41' W 118°07'0 0.1
2017-Sep-14 17:25N 33°41' W 118°07'0 0.0
2017-Sep-14 16:52N 33°41' W 118°07'0 0.0
2017-Sep-14 16:25N 33°41' W 118°07'0 0.0
2017-Sep-14 15:55N 33°41' W 118°07'0 0.0
2017-Sep-14 15:22N 33°41' W 118°07'0 0.0
2017-Sep-14 14:52N 33°41' W 118°07'0 0.1
2017-Sep-14 14:28N 33°41' W 118°07'0 0.0
2017-Sep-14 13:55N 33°41' W 118°07'0 0.0
2017-Sep-14 13:28N 33°41' W 118°07'0 0.1
2017-Sep-14 12:58N 33°41' W 118°07'0 0.0
2017-Sep-14 12:28N 33°41' W 118°07'0 0.2
2017-Sep-14 11:58N 33°41' W 118°07'0 0.3
2017-Sep-14 11:28N 33°41' W 118°07'0 0.1
2017-Sep-14 10:59N 33°41' W 118°07'1 2.9
2017-Sep-14 10:30N 33°40' W 118°08'3 5.7
2017-Sep-14 10:00N 33°37' W 118°09'5 9.1
2017-Sep-14 09:31N 33°33' W 118°09'611.7
2017-Sep-14 09:00N 33°27' W 118°06'611.7
2017-Sep-14 08:30N 33°22' W 118°04'611.3
2017-Sep-14 08:00N 33°16' W 118°01'3 6.0
2017-Sep-14 07:30N 33°14' W 118°00'510.4
2017-Sep-14 07:00N 33°08' W 118°00'611.7
2017-Sep-14 06:30N 33°03' W 118°02'612.6
2017-Sep-14 06:00N 32°57' W 118°04'612.7
2017-Sep-14 05:30N 32°51' W 118°07'612.7
2017-Sep-14 05:00N 32°45' W 118°09'612.1
2017-Sep-14 04:31N 32°40' W 118°13'612.9
2017-Sep-14 04:00N 32°37' W 118°20'712.7
2017-Sep-14 03:29N 32°33' W 118°27'711.9
2017-Sep-14 02:53N 32°26' W 118°28'612.6
2017-Sep-14 02:26N 32°21' W 118°28'512.3
2017-Sep-14 02:00N 32°15' W 118°28'612.4
2017-Sep-14 01:29N 32°09' W 118°28'612.3
2017-Sep-14 00:57N 32°02' W 118°28'612.6
2017-Sep-14 00:29N 31°56' W 118°28'610.6
2017-Sep-13 23:52N 31°52' W 118°22'411.2
2017-Sep-13 23:29N 31°51' W 118°17'1 2.5
2017-Sep-13 22:59N 31°51' W 118°16'1 1.6
2017-Sep-13 22:23N 31°52' W 118°17'1 2.6
2017-Sep-13 22:00N 31°53' W 118°17'1 2.1
2017-Sep-13 21:25N 31°53' W 118°19'1 2.3
2017-Sep-13 20:57N 31°53' W 118°20'3 1.5
2017-Sep-13 18:54N 31°54' W 118°24'1 1.6
2017-Sep-13 18:30N 31°54' W 118°24'1 1.8
2017-Sep-13 17:48N 31°54' W 118°26'1 1.4
2017-Sep-13 17:12N 31°54' W 118°27'1 1.7
2017-Sep-13 16:48N 31°54' W 118°27'0 1.3
2017-Sep-13 16:27N 31°54' W 118°28'1 1.5
2017-Sep-13 16:00N 31°54' W 118°29'1 1.5
2017-Sep-13 15:30N 31°55' W 118°30'1 1.5
2017-Sep-13 15:00N 31°55' W 118°30'1 1.3
2017-Sep-13 14:30N 31°55' W 118°31'1 1.3
2017-Sep-13 13:45N 31°56' W 118°32'0 1.5
2017-Sep-13 13:30N 31°56' W 118°33'1 1.3
2017-Sep-13 13:00N 31°56' W 118°33'1 1.6
2017-Sep-13 12:30N 31°56' W 118°34'1 1.4
2017-Sep-13 11:57N 31°57' W 118°35'1 1.5
2017-Sep-13 11:24N 31°57' W 118°36'1 1.3
2017-Sep-13 10:57N 31°57' W 118°36'1 1.9
2017-Sep-13 10:24N 31°58' W 118°38'1 1.4
2017-Sep-13 10:00N 31°58' W 118°38'1 1.0
2017-Sep-13 09:30N 31°58' W 118°39'1 1.6
2017-Sep-13 09:00N 31°59' W 118°39'1 1.4
2017-Sep-13 08:30N 31°59' W 118°40'1 1.4
2017-Sep-13 08:00N 31°60' W 118°40'1 1.3
2017-Sep-13 07:30N 32°00' W 118°41'1 1.4
2017-Sep-13 07:00N 32°01' W 118°42'1 1.4
2017-Sep-13 06:30N 32°01' W 118°42'1 1.3
2017-Sep-13 06:00N 32°02' W 118°43'1 1.3
2017-Sep-13 05:29N 32°02' W 118°43'1 1.3
2017-Sep-13 04:57N 32°03' W 118°43'1 1.5
2017-Sep-13 04:30N 32°04' W 118°44'1 1.6
2017-Sep-13 04:00N 32°04' W 118°44'1 1.4
2017-Sep-13 03:30N 32°05' W 118°44'1 1.4
2017-Sep-13 03:00N 32°06' W 118°44'2 3.3
2017-Sep-13 02:31N 32°07' W 118°46'3 5.2
2017-Sep-13 02:00N 32°09' W 118°48'3 5.4
2017-Sep-13 01:31N 32°11' W 118°50'3 5.5
2017-Sep-13 01:01N 32°13' W 118°52'3 5.3
2017-Sep-13 00:30N 32°15' W 118°54'2 4.8
2017-Sep-13 00:00N 32°16' W 118°57'2 2.9
2017-Sep-12 23:28N 32°15' W 118°59'2 3.6
2017-Sep-12 23:00N 32°14' W 118°59'2 3.5
2017-Sep-12 22:30N 32°12' W 118°58'1 2.1
2017-Sep-12 22:00N 32°13' W 118°58'1 1.9
2017-Sep-12 21:30N 32°14' W 118°59'1 2.4
2017-Sep-12 21:00N 32°15' W 118°60'1 1.6
2017-Sep-12 20:30N 32°15' W 119°00'2 3.4
2017-Sep-12 20:00N 32°13' W 119°01'612.7
2017-Sep-12 19:30N 32°08' W 119°04'612.8
2017-Sep-12 19:00N 32°02' W 119°08'612.8
2017-Sep-12 18:30N 31°57' W 119°11'612.8
2017-Sep-12 18:00N 31°51' W 119°15'2 4.3
2017-Sep-12 17:29N 31°49' W 119°17'1 1.2
2017-Sep-12 16:50N 31°49' W 119°17'0 1.2
2017-Sep-12 16:29N 31°49' W 119°18'1 1.0
2017-Sep-12 15:59N 31°49' W 119°19'0 0.9
2017-Sep-12 15:29N 31°49' W 119°19'0 0.8
2017-Sep-12 14:59N 31°49' W 119°20'0 0.6
2017-Sep-12 14:29N 31°49' W 119°20'0 0.8
2017-Sep-12 13:59N 31°49' W 119°20'0 0.8
2017-Sep-12 13:23N 31°49' W 119°21'0 0.7
2017-Sep-12 12:59N 31°49' W 119°21'0 0.6
2017-Sep-12 12:29N 31°49' W 119°22'0 0.5
2017-Sep-12 11:59N 31°49' W 119°22'0 0.4
2017-Sep-12 11:29N 31°49' W 119°22'0 0.4
2017-Sep-12 10:59N 31°50' W 119°22'0 0.4
2017-Sep-12 10:29N 31°50' W 119°22'0 0.4
2017-Sep-12 09:59N 31°50' W 119°23'0 0.5
2017-Sep-12 09:29N 31°50' W 119°23'0 0.6
2017-Sep-12 08:59N 31°50' W 119°23'0 0.7
2017-Sep-12 08:29N 31°51' W 119°23'0 0.8
2017-Sep-12 07:56N 31°51' W 119°23'0 0.9
2017-Sep-12 07:29N 31°51' W 119°23'1 0.9
2017-Sep-12 06:56N 31°52' W 119°24'0 1.0
2017-Sep-12 06:29N 31°52' W 119°24'1 1.0
2017-Sep-12 05:59N 31°53' W 119°24'1 1.1
2017-Sep-12 05:29N 31°53' W 119°25'1 1.3
2017-Sep-12 04:59N 31°54' W 119°25'1 1.2
2017-Sep-12 04:29N 31°54' W 119°25'1 1.3
2017-Sep-12 03:59N 31°55' W 119°26'1 1.2
2017-Sep-12 03:29N 31°55' W 119°26'1 1.3
2017-Sep-12 02:59N 31°56' W 119°27'1 1.4
2017-Sep-12 02:29N 31°56' W 119°28'1 1.5
2017-Sep-12 01:59N 31°57' W 119°28'1 1.5
2017-Sep-12 01:29N 31°57' W 119°29'1 1.6
2017-Sep-12 00:59N 31°57' W 119°30'1 1.6
2017-Sep-12 00:29N 31°58' W 119°30'1 1.7
2017-Sep-11 23:59N 31°58' W 119°31'1 1.6
2017-Sep-11 23:29N 31°59' W 119°32'1 1.7
2017-Sep-11 22:59N 31°59' W 119°33'1 1.8
2017-Sep-11 22:30N 31°58' W 119°34'2 3.7
2017-Sep-11 22:00N 31°57' W 119°35'713.2
2017-Sep-11 21:30N 32°00' W 119°29'713.4
2017-Sep-11 21:00N 32°04' W 119°22'713.4
2017-Sep-11 20:30N 32°08' W 119°16'713.2
2017-Sep-11 20:00N 32°11' W 119°09'713.3
2017-Sep-11 19:30N 32°14' W 119°02'713.4
2017-Sep-11 19:00N 32°18' W 118°55'713.5
2017-Sep-11 18:30N 32°22' W 118°49'713.4
2017-Sep-11 18:00N 32°25' W 118°42'713.4
2017-Sep-11 17:30N 32°29' W 118°35'713.6
2017-Sep-11 17:00N 32°32' W 118°28'713.3
2017-Sep-11 16:30N 32°36' W 118°22'713.1
2017-Sep-11 16:00N 32°39' W 118°15'613.0
2017-Sep-11 15:30N 32°45' W 118°11'713.4
2017-Sep-11 15:00N 32°51' W 118°08'713.5
2017-Sep-11 14:30N 32°57' W 118°05'612.5
2017-Sep-11 14:00N 33°02' W 118°00'1 2.1
2017-Sep-11 13:24N 33°03' W 117°59'1 1.3
2017-Sep-11 13:00N 33°03' W 117°60'2 3.9
2017-Sep-11 12:30N 33°05' W 118°00'2 3.6
2017-Sep-11 12:00N 33°07' W 118°01'510.2
2017-Sep-11 11:30N 33°12' W 118°03'713.3
2017-Sep-11 11:00N 33°18' W 118°06'611.3
2017-Sep-11 10:30N 33°23' W 118°08'510.6
2017-Sep-11 10:00N 33°28' W 118°10'611.0
2017-Sep-11 09:30N 33°33' W 118°12'5 9.9
2017-Sep-11 09:00N 33°38' W 118°12'5 9.7
2017-Sep-11 08:30N 33°43' W 118°11'2 3.4
2017-Sep-11 08:00N 33°44' W 118°10'0 0.1
2017-Sep-11 07:30N 33°44' W 118°10'0 0.3
2017-Sep-11 07:00N 33°44' W 118°10'  
Track history (hours):
 
Tides and Currents Weather Stations Pressure Air Temp Water Temp Dewpoint Dewpoint Depression Visibility Wind Speed Wind Dir Waves Ship Positions

Sea Hymn

Last reported at 2017-Sep-21 06:46 UTC. Time now 2017-Oct-18 20:09 UTC.
Position N 37°04' W 123°11'.
Warning: this ship's position is 27 days out of date.

Length 250 m; draft 9.1 m.

Type: Tanker. MMSI: 636017795.

Date/timePositionNaut miles runAvg speedWind from/ knotsBaromVisibWave heightAir tempDewpointWater temp
2017-Sep-21 06:46N 37°04' W 123°11'613.7
2017-Sep-21 06:19N 37°10' W 123°11'413.2
2017-Sep-21 06:00N 37°14' W 123°12'713.1
2017-Sep-21 05:30N 37°20' W 123°10'713.2
2017-Sep-21 05:00N 37°27' W 123°09'612.9
2017-Sep-21 04:30N 37°33' W 123°06'510.7
2017-Sep-21 04:00N 37°36' W 123°00'510.2
2017-Sep-21 03:30N 37°39' W 122°55'510.3
2017-Sep-21 03:00N 37°42' W 122°50'5 9.7
2017-Sep-21 02:30N 37°44' W 122°44'5 9.1
2017-Sep-21 02:00N 37°46' W 122°39'713.6
2017-Sep-21 01:31N 37°48' W 122°31'611.6
2017-Sep-21 01:00N 37°49' W 122°24'3 7.0
2017-Sep-21 00:30N 37°46' W 122°21'0 0.1
2017-Sep-21 00:00N 37°46' W 122°21'0 0.0
2017-Sep-20 23:30N 37°46' W 122°21'0 0.0
2017-Sep-20 23:00N 37°46' W 122°21'0 0.1
2017-Sep-20 22:30N 37°46' W 122°21'0 0.0
2017-Sep-20 22:01N 37°46' W 122°21'0 0.2
2017-Sep-20 21:30N 37°46' W 122°21'0 0.4
2017-Sep-20 21:00N 37°46' W 122°21'0 0.1
2017-Sep-20 20:31N 37°46' W 122°21'0 0.1
2017-Sep-20 20:01N 37°46' W 122°21'0 0.0
2017-Sep-20 19:30N 37°46' W 122°21'0 0.1
2017-Sep-20 19:00N 37°46' W 122°21'2 3.2
2017-Sep-20 18:30N 37°47' W 122°23'510.9
2017-Sep-20 18:00N 37°52' W 122°25'611.5
2017-Sep-20 17:30N 37°58' W 122°27'612.1
2017-Sep-20 17:00N 38°02' W 122°21'713.3
2017-Sep-20 16:30N 38°04' W 122°13'5 9.1
2017-Sep-20 16:00N 38°02' W 122°07'0 0.0
2017-Sep-19 08:51N 38°02' W 122°07'0 0.3
2017-Sep-19 08:30N 38°02' W 122°07'2 2.8
2017-Sep-19 07:58N 38°02' W 122°09'4 8.2
2017-Sep-19 07:30N 38°04' W 122°13'4 8.8
2017-Sep-19 07:00N 38°03' W 122°19'5 9.1
2017-Sep-19 06:30N 38°01' W 122°24'611.1
2017-Sep-19 06:00N 37°56' W 122°27'510.3
2017-Sep-19 05:30N 37°51' W 122°25'510.5
2017-Sep-19 05:00N 37°48' W 122°30'714.3
2017-Sep-19 04:30N 37°46' W 122°39'4 8.6
2017-Sep-19 04:00N 37°43' W 122°43'2 3.9
2017-Sep-19 03:30N 37°41' W 122°45'4 7.3
2017-Sep-19 03:00N 37°39' W 122°48'510.0
2017-Sep-19 02:30N 37°37' W 122°54'510.1
2017-Sep-19 02:00N 37°34' W 122°59'5 9.9
2017-Sep-19 01:30N 37°31' W 123°04'611.5
2017-Sep-19 01:00N 37°27' W 123°09'612.4
2017-Sep-19 00:30N 37°22' W 123°13'712.1
2017-Sep-18 23:54N 37°16' W 123°19'5 0.5
2017-Sep-18 13:24N 37°21' W 123°19'8 7.2
2017-Sep-18 12:20N 37°16' W 123°12'513.3
2017-Sep-18 11:58N 37°11' W 123°11'713.5
2017-Sep-18 11:27N 37°04' W 123°11'813.6
2017-Sep-18 10:52N 36°56' W 123°10'513.5
2017-Sep-18 10:30N 36°51' W 123°10'1013.7
2017-Sep-18 09:48N 36°42' W 123°09'513.3
2017-Sep-18 09:28N 36°37' W 123°09'813.4
2017-Sep-18 08:52N 36°29' W 123°09'513.4
2017-Sep-18 08:29N 36°24' W 123°08'613.3
2017-Sep-18 08:00N 36°18' W 123°08'1313.3
2017-Sep-18 07:03N 36°05' W 123°07'113.2
2017-Sep-18 07:00N 36°04' W 123°06'713.2
2017-Sep-18 06:30N 35°58' W 123°06'812.9
2017-Sep-18 05:54N 35°50' W 123°06'512.7
2017-Sep-18 05:30N 35°45' W 123°05'612.7
2017-Sep-18 05:00N 35°39' W 123°05'712.6
2017-Sep-18 04:29N 35°32' W 123°04'812.4
2017-Sep-18 03:51N 35°25' W 123°01'512.9
2017-Sep-18 03:30N 35°21' W 122°58'2212.4
2017-Sep-18 01:46N 35°03' W 122°44'312.6
2017-Sep-18 01:30N 34°60' W 122°42'1512.5
2017-Sep-18 00:20N 34°47' W 122°32'412.4
2017-Sep-17 23:59N 34°44' W 122°29'712.5
2017-Sep-17 23:28N 34°38' W 122°25'611.7
2017-Sep-17 22:58N 34°35' W 122°20'612.7
2017-Sep-17 22:28N 34°34' W 122°12'1012.8
2017-Sep-17 21:43N 34°33' W 122°00'312.8
2017-Sep-17 21:30N 34°33' W 121°57'713.0
2017-Sep-17 21:00N 34°32' W 121°49'713.2
2017-Sep-17 20:30N 34°31' W 121°41'713.1
2017-Sep-17 20:00N 34°30' W 121°33'713.1
2017-Sep-17 19:30N 34°29' W 121°25'713.3
2017-Sep-17 19:00N 34°29' W 121°17'713.1
2017-Sep-17 18:30N 34°28' W 121°09'713.3
2017-Sep-17 18:00N 34°27' W 121°01'713.4
2017-Sep-17 17:30N 34°26' W 120°53'713.6
2017-Sep-17 17:00N 34°25' W 120°45'713.7
2017-Sep-17 16:30N 34°23' W 120°37'714.1
2017-Sep-17 16:00N 34°21' W 120°29'714.1
2017-Sep-17 15:30N 34°19' W 120°21'714.3
2017-Sep-17 15:00N 34°17' W 120°12'713.8
2017-Sep-17 14:30N 34°15' W 120°04'713.5
2017-Sep-17 14:00N 34°14' W 119°56'713.6
2017-Sep-17 13:29N 34°12' W 119°48'713.5
2017-Sep-17 13:00N 34°10' W 119°41'713.8
2017-Sep-17 12:30N 34°08' W 119°33'713.6
2017-Sep-17 12:00N 34°06' W 119°25'713.6
2017-Sep-17 11:30N 34°04' W 119°17'613.2
2017-Sep-17 11:00N 34°02' W 119°10'713.6
2017-Sep-17 10:30N 33°58' W 119°03'612.3
2017-Sep-17 10:00N 33°55' W 118°56'612.0
2017-Sep-17 09:30N 33°52' W 118°50'612.1
2017-Sep-17 09:00N 33°49' W 118°44'611.9
2017-Sep-17 08:30N 33°46' W 118°37'611.8
2017-Sep-17 08:00N 33°43' W 118°31'611.9
2017-Sep-17 07:30N 33°40' W 118°25'611.6
2017-Sep-17 07:00N 33°38' W 118°19'510.8
2017-Sep-17 06:31N 33°39' W 118°12'4 8.8
2017-Sep-17 06:01N 33°43' W 118°11'3 4.9
2017-Sep-17 05:30N 33°45' W 118°13'1 1.9
2017-Sep-17 05:00N 33°46' W 118°13'0 0.0
2017-Sep-17 04:30N 33°46' W 118°13'0 0.0
2017-Sep-17 03:55N 33°46' W 118°13'0 0.0
2017-Sep-17 02:19N 33°46' W 118°13'0 0.0
2017-Sep-17 01:01N 33°46' W 118°13'0 0.0
2017-Sep-17 00:43N 33°46' W 118°13'0 0.0
2017-Sep-17 00:25N 33°46' W 118°13'0 0.0
2017-Sep-16 23:49N 33°46' W 118°13'0 0.0
2017-Sep-16 23:25N 33°46' W 118°13'0 0.0
2017-Sep-16 22:37N 33°46' W 118°13'0 0.0
2017-Sep-16 22:19N 33°46' W 118°13'0 0.0
2017-Sep-16 21:55N 33°46' W 118°13'0 0.0
2017-Sep-16 21:25N 33°46' W 118°13'0 0.0
2017-Sep-16 20:55N 33°46' W 118°13'0 0.0
2017-Sep-16 20:19N 33°46' W 118°13'0 0.0
2017-Sep-16 19:55N 33°46' W 118°13'0 0.0
2017-Sep-16 19:19N 33°46' W 118°13'0 0.0
2017-Sep-16 18:55N 33°46' W 118°13'0 0.0
2017-Sep-16 06:43N 33°46' W 118°13'0 0.0
2017-Sep-16 05:31N 33°46' W 118°13'0 0.0
2017-Sep-16 05:25N 33°46' W 118°13'0 0.0
2017-Sep-16 05:00N 33°46' W 118°13'0 0.8
2017-Sep-16 04:29N 33°46' W 118°13'1 2.9
2017-Sep-16 04:00N 33°45' W 118°13'3 5.5
2017-Sep-16 03:30N 33°42' W 118°11'1 2.9
2017-Sep-16 03:00N 33°41' W 118°10'1 2.5
2017-Sep-16 02:30N 33°41' W 118°08'1 2.0
2017-Sep-16 01:49N 33°41' W 118°07'0 0.0
2017-Sep-16 00:34N 33°41' W 118°07'0 0.0
2017-Sep-16 00:28N 33°41' W 118°07'0 0.0
2017-Sep-15 23:58N 33°41' W 118°07'0 0.1
2017-Sep-15 23:25N 33°41' W 118°07'0 0.0
2017-Sep-15 22:43N 33°41' W 118°07'0 0.0
2017-Sep-15 22:28N 33°41' W 118°07'0 0.0
2017-Sep-15 21:58N 33°41' W 118°07'0 0.0
2017-Sep-15 21:25N 33°41' W 118°07'0 0.0
2017-Sep-15 20:52N 33°41' W 118°07'0 0.0
2017-Sep-15 20:28N 33°41' W 118°07'0 0.0
2017-Sep-15 19:55N 33°41' W 118°07'0 0.0
2017-Sep-15 19:28N 33°41' W 118°07'0 0.0
2017-Sep-15 18:58N 33°41' W 118°07'0 0.0
2017-Sep-15 18:28N 33°41' W 118°07'0 0.0
2017-Sep-15 17:58N 33°41' W 118°07'0 0.1
2017-Sep-15 17:28N 33°41' W 118°07'0 0.1
2017-Sep-15 16:52N 33°41' W 118°07'0 0.1
2017-Sep-15 15:43N 33°41' W 118°07'0 0.1
2017-Sep-15 15:19N 33°41' W 118°07'0 0.0
2017-Sep-15 14:58N 33°41' W 118°07'0 0.1
2017-Sep-15 14:28N 33°41' W 118°07'0 0.1
2017-Sep-15 13:58N 33°41' W 118°07'0 0.2
2017-Sep-15 13:28N 33°41' W 118°07'0 0.1
2017-Sep-15 12:58N 33°41' W 118°07'0 0.1
2017-Sep-15 12:28N 33°41' W 118°07'0 0.0
2017-Sep-15 10:37N 33°41' W 118°07'0 0.0
2017-Sep-15 09:28N 33°41' W 118°07'0 0.1
2017-Sep-15 08:58N 33°41' W 118°07'0 0.0
2017-Sep-15 08:28N 33°41' W 118°07'0 0.0
2017-Sep-15 07:58N 33°41' W 118°07'0 0.0
2017-Sep-15 07:28N 33°41' W 118°07'0 0.0
2017-Sep-15 06:58N 33°41' W 118°07'0 0.0
2017-Sep-15 06:28N 33°41' W 118°07'0 0.0
2017-Sep-15 05:58N 33°41' W 118°07'0 0.0
2017-Sep-15 05:25N 33°41' W 118°07'0 0.0
2017-Sep-15 04:58N 33°41' W 118°07'0 0.0
2017-Sep-15 04:28N 33°41' W 118°07'0 0.0
2017-Sep-15 03:58N 33°41' W 118°07'0 0.0
2017-Sep-15 03:28N 33°41' W 118°07'0 0.0
2017-Sep-15 02:58N 33°41' W 118°07'0 0.1
2017-Sep-15 02:28N 33°41' W 118°07'0 0.0
2017-Sep-15 01:58N 33°41' W 118°07'0 0.1
2017-Sep-15 01:28N 33°41' W 118°07'0 0.1
2017-Sep-15 00:58N 33°41' W 118°07'0 0.0
2017-Sep-15 00:25N 33°41' W 118°07'0 0.0
2017-Sep-14 23:58N 33°41' W 118°07'0 0.0
2017-Sep-14 23:28N 33°41' W 118°07'0 0.0
2017-Sep-14 22:49N 33°41' W 118°07'0 0.0
2017-Sep-14 22:22N 33°41' W 118°07'0 0.0
2017-Sep-14 21:58N 33°41' W 118°07'0 0.1
2017-Sep-14 21:28N 33°41' W 118°07'0 0.0
2017-Sep-14 20:58N 33°41' W 118°07'0 0.0
2017-Sep-14 20:28N 33°41' W 118°07'0 0.1
2017-Sep-14 19:58N 33°41' W 118°07'0 0.1
2017-Sep-14 19:28N 33°41' W 118°07'0 0.0
2017-Sep-14 18:58N 33°41' W 118°07'0 0.0
2017-Sep-14 18:28N 33°41' W 118°07'0 0.0
2017-Sep-14 17:58N 33°41' W 118°07'0 0.1
2017-Sep-14 17:25N 33°41' W 118°07'0 0.0
2017-Sep-14 16:52N 33°41' W 118°07'0 0.0
2017-Sep-14 16:25N 33°41' W 118°07'0 0.0
2017-Sep-14 15:55N 33°41' W 118°07'0 0.0
2017-Sep-14 15:22N 33°41' W 118°07'0 0.0
2017-Sep-14 14:52N 33°41' W 118°07'0 0.1
2017-Sep-14 14:28N 33°41' W 118°07'0 0.0
2017-Sep-14 13:55N 33°41' W 118°07'0 0.0
2017-Sep-14 13:28N 33°41' W 118°07'0 0.1
2017-Sep-14 12:58N 33°41' W 118°07'0 0.0
2017-Sep-14 12:28N 33°41' W 118°07'0 0.2
2017-Sep-14 11:58N 33°41' W 118°07'0 0.3
2017-Sep-14 11:28N 33°41' W 118°07'0 0.1
2017-Sep-14 10:59N 33°41' W 118°07'1 2.9
2017-Sep-14 10:30N 33°40' W 118°08'3 5.7
2017-Sep-14 10:00N 33°37' W 118°09'5 9.1
2017-Sep-14 09:31N 33°33' W 118°09'611.7
2017-Sep-14 09:00N 33°27' W 118°06'611.7
2017-Sep-14 08:30N 33°22' W 118°04'611.3
2017-Sep-14 08:00N 33°16' W 118°01'3 6.0
2017-Sep-14 07:30N 33°14' W 118°00'510.4
2017-Sep-14 07:00N 33°08' W 118°00'611.7
2017-Sep-14 06:30N 33°03' W 118°02'612.6
2017-Sep-14 06:00N 32°57' W 118°04'612.7
2017-Sep-14 05:30N 32°51' W 118°07'612.7
2017-Sep-14 05:00N 32°45' W 118°09'612.1
2017-Sep-14 04:31N 32°40' W 118°13'612.9
2017-Sep-14 04:00N 32°37' W 118°20'712.7
2017-Sep-14 03:29N 32°33' W 118°27'711.9
2017-Sep-14 02:53N 32°26' W 118°28'612.6
2017-Sep-14 02:26N 32°21' W 118°28'512.3
2017-Sep-14 02:00N 32°15' W 118°28'612.4
2017-Sep-14 01:29N 32°09' W 118°28'612.3
2017-Sep-14 00:57N 32°02' W 118°28'612.6
2017-Sep-14 00:29N 31°56' W 118°28'610.6
2017-Sep-13 23:52N 31°52' W 118°22'411.2
2017-Sep-13 23:29N 31°51' W 118°17'1 2.5
2017-Sep-13 22:59N 31°51' W 118°16'1 1.6
2017-Sep-13 22:23N 31°52' W 118°17'1 2.6
2017-Sep-13 22:00N 31°53' W 118°17'1 2.1
2017-Sep-13 21:25N 31°53' W 118°19'1 2.3
2017-Sep-13 20:57N 31°53' W 118°20'3 1.5
2017-Sep-13 18:54N 31°54' W 118°24'1 1.6
2017-Sep-13 18:30N 31°54' W 118°24'1 1.8
2017-Sep-13 17:48N 31°54' W 118°26'1 1.4
2017-Sep-13 17:12N 31°54' W 118°27'1 1.7
2017-Sep-13 16:48N 31°54' W 118°27'0 1.3
2017-Sep-13 16:27N 31°54' W 118°28'1 1.5
2017-Sep-13 16:00N 31°54' W 118°29'1 1.5
2017-Sep-13 15:30N 31°55' W 118°30'1 1.5
2017-Sep-13 15:00N 31°55' W 118°30'1 1.3
2017-Sep-13 14:30N 31°55' W 118°31'1 1.3
2017-Sep-13 13:45N 31°56' W 118°32'0 1.5
2017-Sep-13 13:30N 31°56' W 118°33'1 1.3
2017-Sep-13 13:00N 31°56' W 118°33'1 1.6
2017-Sep-13 12:30N 31°56' W 118°34'1 1.4
2017-Sep-13 11:57N 31°57' W 118°35'1 1.5
2017-Sep-13 11:24N 31°57' W 118°36'1 1.3
2017-Sep-13 10:57N 31°57' W 118°36'1 1.9
2017-Sep-13 10:24N 31°58' W 118°38'1 1.4
2017-Sep-13 10:00N 31°58' W 118°38'1 1.0
2017-Sep-13 09:30N 31°58' W 118°39'1 1.6
2017-Sep-13 09:00N 31°59' W 118°39'1 1.4
2017-Sep-13 08:30N 31°59' W 118°40'1 1.4
2017-Sep-13 08:00N 31°60' W 118°40'1 1.3
2017-Sep-13 07:30N 32°00' W 118°41'1 1.4
2017-Sep-13 07:00N 32°01' W 118°42'1 1.4
2017-Sep-13 06:30N 32°01' W 118°42'1 1.3
2017-Sep-13 06:00N 32°02' W 118°43'1 1.3
2017-Sep-13 05:29N 32°02' W 118°43'1 1.3
2017-Sep-13 04:57N 32°03' W 118°43'1 1.5
2017-Sep-13 04:30N 32°04' W 118°44'1 1.6
2017-Sep-13 04:00N 32°04' W 118°44'1 1.4
2017-Sep-13 03:30N 32°05' W 118°44'1 1.4
2017-Sep-13 03:00N 32°06' W 118°44'2 3.3
2017-Sep-13 02:31N 32°07' W 118°46'3 5.2
2017-Sep-13 02:00N 32°09' W 118°48'3 5.4
2017-Sep-13 01:31N 32°11' W 118°50'3 5.5
2017-Sep-13 01:01N 32°13' W 118°52'3 5.3
2017-Sep-13 00:30N 32°15' W 118°54'2 4.8
2017-Sep-13 00:00N 32°16' W 118°57'2 2.9
2017-Sep-12 23:28N 32°15' W 118°59'2 3.6
2017-Sep-12 23:00N 32°14' W 118°59'2 3.5
2017-Sep-12 22:30N 32°12' W 118°58'1 2.1
2017-Sep-12 22:00N 32°13' W 118°58'1 1.9
2017-Sep-12 21:30N 32°14' W 118°59'1 2.4
2017-Sep-12 21:00N 32°15' W 118°60'1 1.6
2017-Sep-12 20:30N 32°15' W 119°00'2 3.4
2017-Sep-12 20:00N 32°13' W 119°01'612.7
2017-Sep-12 19:30N 32°08' W 119°04'612.8
2017-Sep-12 19:00N 32°02' W 119°08'612.8
2017-Sep-12 18:30N 31°57' W 119°11'612.8
2017-Sep-12 18:00N 31°51' W 119°15'2 4.3
2017-Sep-12 17:29N 31°49' W 119°17'1 1.2
2017-Sep-12 16:50N 31°49' W 119°17'0 1.2
2017-Sep-12 16:29N 31°49' W 119°18'1 1.0
2017-Sep-12 15:59N 31°49' W 119°19'0 0.9
2017-Sep-12 15:29N 31°49' W 119°19'0 0.8
2017-Sep-12 14:59N 31°49' W 119°20'0 0.6
2017-Sep-12 14:29N 31°49' W 119°20'0 0.8
2017-Sep-12 13:59N 31°49' W 119°20'0 0.8
2017-Sep-12 13:23N 31°49' W 119°21'0 0.7
2017-Sep-12 12:59N 31°49' W 119°21'0 0.6
2017-Sep-12 12:29N 31°49' W 119°22'0 0.5
2017-Sep-12 11:59N 31°49' W 119°22'0 0.4
2017-Sep-12 11:29N 31°49' W 119°22'0 0.4
2017-Sep-12 10:59N 31°50' W 119°22'0 0.4
2017-Sep-12 10:29N 31°50' W 119°22'0 0.4
2017-Sep-12 09:59N 31°50' W 119°23'0 0.5
2017-Sep-12 09:29N 31°50' W 119°23'0 0.6
2017-Sep-12 08:59N 31°50' W 119°23'0 0.7
2017-Sep-12 08:29N 31°51' W 119°23'0 0.8
2017-Sep-12 07:56N 31°51' W 119°23'0 0.9
2017-Sep-12 07:29N 31°51' W 119°23'1 0.9
2017-Sep-12 06:56N 31°52' W 119°24'0 1.0
2017-Sep-12 06:29N 31°52' W 119°24'1 1.0
2017-Sep-12 05:59N 31°53' W 119°24'1 1.1
2017-Sep-12 05:29N 31°53' W 119°25'1 1.3
2017-Sep-12 04:59N 31°54' W 119°25'1 1.2
2017-Sep-12 04:29N 31°54' W 119°25'1 1.3
2017-Sep-12 03:59N 31°55' W 119°26'1 1.2
2017-Sep-12 03:29N 31°55' W 119°26'1 1.3
2017-Sep-12 02:59N 31°56' W 119°27'1 1.4
2017-Sep-12 02:29N 31°56' W 119°28'1 1.5
2017-Sep-12 01:59N 31°57' W 119°28'1 1.5
2017-Sep-12 01:29N 31°57' W 119°29'1 1.6
2017-Sep-12 00:59N 31°57' W 119°30'1 1.6
2017-Sep-12 00:29N 31°58' W 119°30'1 1.7
2017-Sep-11 23:59N 31°58' W 119°31'1 1.6
2017-Sep-11 23:29N 31°59' W 119°32'1 1.7
2017-Sep-11 22:59N 31°59' W 119°33'1 1.8
2017-Sep-11 22:30N 31°58' W 119°34'2 3.7
2017-Sep-11 22:00N 31°57' W 119°35'713.2
2017-Sep-11 21:30N 32°00' W 119°29'713.4
2017-Sep-11 21:00N 32°04' W 119°22'713.4
2017-Sep-11 20:30N 32°08' W 119°16'713.2
2017-Sep-11 20:00N 32°11' W 119°09'713.3
2017-Sep-11 19:30N 32°14' W 119°02'713.4
2017-Sep-11 19:00N 32°18' W 118°55'713.5
2017-Sep-11 18:30N 32°22' W 118°49'713.4
2017-Sep-11 18:00N 32°25' W 118°42'713.4
2017-Sep-11 17:30N 32°29' W 118°35'713.6
2017-Sep-11 17:00N 32°32' W 118°28'713.3
2017-Sep-11 16:30N 32°36' W 118°22'713.1
2017-Sep-11 16:00N 32°39' W 118°15'613.0
2017-Sep-11 15:30N 32°45' W 118°11'713.4
2017-Sep-11 15:00N 32°51' W 118°08'713.5
2017-Sep-11 14:30N 32°57' W 118°05'612.5
2017-Sep-11 14:00N 33°02' W 118°00'1 2.1
2017-Sep-11 13:24N 33°03' W 117°59'1 1.3
2017-Sep-11 13:00N 33°03' W 117°60'2 3.9
2017-Sep-11 12:30N 33°05' W 118°00'2 3.6
2017-Sep-11 12:00N 33°07' W 118°01'510.2
2017-Sep-11 11:30N 33°12' W 118°03'713.3
2017-Sep-11 11:00N 33°18' W 118°06'611.3
2017-Sep-11 10:30N 33°23' W 118°08'510.6
2017-Sep-11 10:00N 33°28' W 118°10'611.0
2017-Sep-11 09:30N 33°33' W 118°12'5 9.9
2017-Sep-11 09:00N 33°38' W 118°12'5 9.7
2017-Sep-11 08:30N 33°43' W 118°11'2 3.4
2017-Sep-11 08:00N 33°44' W 118°10'0 0.1
2017-Sep-11 07:30N 33°44' W 118°10'0 0.3
2017-Sep-11 07:00N 33°44' W 118°10'  

Dump ship's entire track history